Terminal Aerodrome Forecast
Issued by NWS Melbourne, FL

Home | Current Version | Previous Version | Text Only | Print | Product List | Glossary On
Versions: 1 2 3 4 5 6 7 8 9 10 11 12 13 14
000
FTUS42 KMLB 302300
TAFMLB
TAF
KMLB 302321Z 0100/0124 28005KT P6SM VCSH BKN080
     FM010200 00000KT P6SM SCT100 BKN250
     FM011300 33005KT P6SM FEW010 BKN080
     FM011600 04008KT P6SM SCT025 BKN060=

USA.gov is the U.S. government's official web portal to all federal, state and local government web resources and services.